createdAt,value
2023-04-10T00:07:12.980Z,57.00
2023-04-10T00:19:13.909Z,36.20
2023-04-10T00:31:16.147Z,41.70
2023-04-10T00:43:16.103Z,43.90
2023-04-10T00:55:14.795Z,38.40
2023-04-10T01:07:15.270Z,36.50
2023-04-10T01:19:15.721Z,47.20
2023-04-10T01:31:16.151Z,41.40
2023-04-10T01:43:16.602Z,38.40
2023-04-10T01:55:17.049Z,36.70
2023-04-10T02:07:17.534Z,32.00
2023-04-10T02:19:17.966Z,32.90
2023-04-10T02:31:18.546Z,32.60
2023-04-10T02:43:18.862Z,32.60
2023-04-10T03:07:19.778Z,31.50
2023-04-10T03:19:20.200Z,34.60
2023-04-10T03:31:20.778Z,39.40
2023-04-10T03:43:21.221Z,37.10
2023-04-10T03:55:21.527Z,37.70
2023-04-10T04:07:22.066Z,40.60
2023-04-10T04:19:22.468Z,38.20
2023-04-10T04:31:22.927Z,35.40
2023-04-10T04:43:23.404Z,36.40
2023-04-10T04:55:23.870Z,36.70
2023-04-10T05:07:24.342Z,37.40
2023-04-10T05:19:24.761Z,36.20
2023-04-10T05:31:25.208Z,37.00
2023-04-10T05:43:25.624Z,35.90
2023-04-10T05:55:26.257Z,37.00
2023-04-10T06:07:26.547Z,48.40
2023-04-10T06:19:27.002Z,44.40
2023-04-10T06:31:27.528Z,46.90
2023-04-10T06:43:27.896Z,49.10
2023-04-10T06:55:31.071Z,52.00
2023-04-10T07:07:28.810Z,54.70
2023-04-10T07:19:29.469Z,56.30
2023-04-10T07:31:29.743Z,34.10
2023-04-10T07:43:30.139Z,25.30
2023-04-10T07:55:30.597Z,23.00
2023-04-10T08:07:31.071Z,27.50
2023-04-10T08:19:31.520Z,23.50
2023-04-10T08:31:32.080Z,22.70
2023-04-10T08:43:32.400Z,20.40
2023-04-10T08:55:32.840Z,20.70
2023-04-10T09:07:33.315Z,18.70
2023-04-10T09:19:33.803Z,19.70
2023-04-10T09:31:34.273Z,18.70
2023-04-10T09:43:34.660Z,15.50
2023-04-10T09:55:35.068Z,17.10
2023-04-10T10:07:35.769Z,16.10
2023-04-10T10:19:36.031Z,16.60
2023-04-10T10:31:36.493Z,16.60
2023-04-10T10:43:36.927Z,10.30
2023-04-10T10:55:37.413Z,12.10
2023-04-10T11:07:37.887Z,10.30
2023-04-10T11:19:38.299Z,8.80
2023-04-10T11:31:38.789Z,14.70
2023-04-10T11:43:39.254Z,6.50
2023-04-10T11:55:39.652Z,7.40
2023-04-10T12:07:40.102Z,6.90
2023-04-10T12:19:40.603Z,8.90
2023-04-10T12:31:41.102Z,10.00
2023-04-10T12:43:41.474Z,7.70
2023-04-10T12:55:41.918Z,10.80
2023-04-10T13:07:42.413Z,8.80
2023-04-10T13:19:42.859Z,10.80
2023-04-10T13:31:43.346Z,9.40
2023-04-10T13:43:43.755Z,9.50
2023-04-10T13:55:44.206Z,9.90
2023-04-10T14:07:44.719Z,11.20
2023-04-10T14:19:45.132Z,10.80
2023-04-10T14:31:57.257Z,9.90
2023-04-10T14:43:46.030Z,10.10
2023-04-10T14:55:46.542Z,10.80
2023-04-10T15:07:47.000Z,10.70
2023-04-10T15:19:47.451Z,9.60
2023-04-10T15:31:47.869Z,10.20
2023-04-10T15:43:48.340Z,9.70
2023-04-10T15:55:48.768Z,11.10
2023-04-10T16:07:49.230Z,10.80
2023-04-10T16:19:49.705Z,13.40
2023-04-10T16:31:50.202Z,12.40
2023-04-10T16:43:50.632Z,11.70
2023-04-10T16:55:51.057Z,11.50
2023-04-10T17:07:51.512Z,11.40
2023-04-10T17:19:51.957Z,11.70
2023-04-10T17:31:52.496Z,13.70
2023-04-10T17:43:52.847Z,14.10
2023-04-10T17:55:53.322Z,17.90
2023-04-10T18:07:53.794Z,17.70
2023-04-10T18:19:54.223Z,15.10
2023-04-10T18:31:54.681Z,15.10
2023-04-10T18:44:04.820Z,15.00
2023-04-10T18:55:55.610Z,17.40
2023-04-10T19:08:03.495Z,16.00
2023-04-10T19:19:56.480Z,17.20
2023-04-10T19:31:59.773Z,15.80
2023-04-10T19:43:57.649Z,20.20
2023-04-10T19:55:58.016Z,17.80
2023-04-10T20:07:58.298Z,23.10
2023-04-10T20:19:58.771Z,23.90
2023-04-10T20:31:59.264Z,20.20
2023-04-10T20:43:59.666Z,31.90
2023-04-10T20:56:00.117Z,35.40
2023-04-10T21:08:02.330Z,22.80
2023-04-10T21:20:01.087Z,28.80
2023-04-10T21:32:01.532Z,23.90
2023-04-10T21:44:01.899Z,22.70
2023-04-10T21:56:02.391Z,22.30
2023-04-10T22:08:05.144Z,24.20
2023-04-10T22:20:03.287Z,23.00
2023-04-10T22:32:03.721Z,22.70
2023-04-10T22:44:04.205Z,23.80
2023-04-10T22:56:04.644Z,24.90
2023-04-10T23:08:05.086Z,23.80
2023-04-10T23:20:05.560Z,23.40
2023-04-10T23:32:06.011Z,23.90
2023-04-10T23:44:06.472Z,21.70
2023-04-10T23:56:06.933Z,22.60
